sensor_id;sensor_type;location;lat;lon;timestamp;P1;durP1;ratioP1;P2;durP2;ratioP2
23230;SDS011;11784;49.818;8.632;2024-01-30T00:01:07;38.05;;;12.85;;
23230;SDS011;11784;49.818;8.632;2024-01-30T00:03:33;36.85;;;12.88;;
23230;SDS011;11784;49.818;8.632;2024-01-30T00:06:02;32.60;;;11.95;;
23230;SDS011;11784;49.818;8.632;2024-01-30T00:08:28;32.08;;;11.43;;
23230;SDS011;11784;49.818;8.632;2024-01-30T00:10:54;24.55;;;10.45;;
23230;SDS011;11784;49.818;8.632;2024-01-30T00:13:20;21.25;;;8.82;;
23230;SDS011;11784;49.818;8.632;2024-01-30T00:15:47;15.95;;;7.32;;
23230;SDS011;11784;49.818;8.632;2024-01-30T00:18:13;17.02;;;8.23;;
23230;SDS011;11784;49.818;8.632;2024-01-30T00:20:40;23.05;;;8.57;;
23230;SDS011;11784;49.818;8.632;2024-01-30T00:23:07;18.65;;;8.05;;
23230;SDS011;11784;49.818;8.632;2024-01-30T00:25:33;16.95;;;6.35;;
23230;SDS011;11784;49.818;8.632;2024-01-30T00:27:59;13.30;;;6.78;;
23230;SDS011;11784;49.818;8.632;2024-01-30T00:30:26;13.80;;;6.72;;
23230;SDS011;11784;49.818;8.632;2024-01-30T00:32:52;12.57;;;6.30;;
23230;SDS011;11784;49.818;8.632;2024-01-30T00:35:17;13.25;;;6.72;;
23230;SDS011;11784;49.818;8.632;2024-01-30T00:37:43;12.80;;;6.20;;
23230;SDS011;11784;49.818;8.632;2024-01-30T00:40:09;16.45;;;6.95;;
23230;SDS011;11784;49.818;8.632;2024-01-30T00:42:40;13.57;;;6.43;;
23230;SDS011;11784;49.818;8.632;2024-01-30T00:45:06;15.27;;;7.03;;
23230;SDS011;11784;49.818;8.632;2024-01-30T00:47:37;16.60;;;7.80;;
23230;SDS011;11784;49.818;8.632;2024-01-30T00:50:03;13.55;;;7.13;;
23230;SDS011;11784;49.818;8.632;2024-01-30T00:52:29;13.77;;;6.80;;
23230;SDS011;11784;49.818;8.632;2024-01-30T00:54:54;16.30;;;7.20;;
23230;SDS011;11784;49.818;8.632;2024-01-30T00:57:20;14.02;;;6.65;;
23230;SDS011;11784;49.818;8.632;2024-01-30T00:59:46;10.93;;;6.22;;
23230;SDS011;11784;49.818;8.632;2024-01-30T01:02:12;14.13;;;6.40;;
23230;SDS011;11784;49.818;8.632;2024-01-30T01:04:40;14.07;;;6.57;;
23230;SDS011;11784;49.818;8.632;2024-01-30T01:07:06;14.93;;;5.90;;
23230;SDS011;11784;49.818;8.632;2024-01-30T01:09:31;12.70;;;6.05;;
23230;SDS011;11784;49.818;8.632;2024-01-30T01:11:57;11.73;;;5.65;;
23230;SDS011;11784;49.818;8.632;2024-01-30T01:14:23;10.23;;;5.22;;
23230;SDS011;11784;49.818;8.632;2024-01-30T01:16:50;11.52;;;5.40;;
23230;SDS011;11784;49.818;8.632;2024-01-30T01:19:16;10.23;;;5.18;;
23230;SDS011;11784;49.818;8.632;2024-01-30T01:21:42;9.77;;;6.35;;
23230;SDS011;11784;49.818;8.632;2024-01-30T01:24:08;7.88;;;5.07;;
23230;SDS011;11784;49.818;8.632;2024-01-30T01:26:34;11.82;;;5.50;;
23230;SDS011;11784;49.818;8.632;2024-01-30T01:29:00;13.43;;;5.90;;
23230;SDS011;11784;49.818;8.632;2024-01-30T01:31:26;10.27;;;6.15;;
23230;SDS011;11784;49.818;8.632;2024-01-30T01:33:54;9.63;;;5.60;;
23230;SDS011;11784;49.818;8.632;2024-01-30T01:36:20;9.63;;;5.60;;
23230;SDS011;11784;49.818;8.632;2024-01-30T01:38:46;11.95;;;6.00;;
23230;SDS011;11784;49.818;8.632;2024-01-30T01:41:12;10.70;;;5.80;;
23230;SDS011;11784;49.818;8.632;2024-01-30T01:43:38;7.88;;;4.88;;
23230;SDS011;11784;49.818;8.632;2024-01-30T01:46:04;10.38;;;5.57;;
23230;SDS011;11784;49.818;8.632;2024-01-30T01:48:30;10.80;;;5.85;;
23230;SDS011;11784;49.818;8.632;2024-01-30T01:50:57;10.60;;;5.18;;
23230;SDS011;11784;49.818;8.632;2024-01-30T01:53:23;10.05;;;5.72;;
23230;SDS011;11784;49.818;8.632;2024-01-30T01:55:49;12.98;;;5.82;;
23230;SDS011;11784;49.818;8.632;2024-01-30T01:58:15;11.45;;;5.68;;
23230;SDS011;11784;49.818;8.632;2024-01-30T02:00:41;15.38;;;5.43;;
23230;SDS011;11784;49.818;8.632;2024-01-30T02:03:08;11.45;;;6.28;;
23230;SDS011;11784;49.818;8.632;2024-01-30T02:05:37;9.77;;;5.38;;
23230;SDS011;11784;49.818;8.632;2024-01-30T02:08:03;10.50;;;5.45;;
23230;SDS011;11784;49.818;8.632;2024-01-30T02:10:29;9.45;;;5.47;;
23230;SDS011;11784;49.818;8.632;2024-01-30T02:12:55;9.93;;;5.97;;
23230;SDS011;11784;49.818;8.632;2024-01-30T02:15:20;10.90;;;5.63;;
23230;SDS011;11784;49.818;8.632;2024-01-30T02:17:46;8.45;;;5.13;;
23230;SDS011;11784;49.818;8.632;2024-01-30T02:20:12;9.88;;;5.47;;
23230;SDS011;11784;49.818;8.632;2024-01-30T02:22:38;10.85;;;5.30;;
23230;SDS011;11784;49.818;8.632;2024-01-30T02:25:05;12.77;;;5.85;;
23230;SDS011;11784;49.818;8.632;2024-01-30T02:27:31;10.70;;;5.85;;
23230;SDS011;11784;49.818;8.632;2024-01-30T02:29:57;12.13;;;6.30;;
23230;SDS011;11784;49.818;8.632;2024-01-30T02:32:23;10.05;;;5.97;;
23230;SDS011;11784;49.818;8.632;2024-01-30T02:34:49;10.60;;;6.07;;
23230;SDS011;11784;49.818;8.632;2024-01-30T02:37:16;11.27;;;5.53;;
23230;SDS011;11784;49.818;8.632;2024-01-30T02:39:42;10.80;;;5.38;;
23230;SDS011;11784;49.818;8.632;2024-01-30T02:42:08;11.73;;;5.57;;
23230;SDS011;11784;49.818;8.632;2024-01-30T02:44:34;10.82;;;5.60;;
23230;SDS011;11784;49.818;8.632;2024-01-30T02:47:00;12.15;;;5.68;;
23230;SDS011;11784;49.818;8.632;2024-01-30T02:49:26;9.77;;;5.68;;
23230;SDS011;11784;49.818;8.632;2024-01-30T02:51:53;10.50;;;5.30;;
23230;SDS011;11784;49.818;8.632;2024-01-30T02:54:19;12.13;;;5.55;;
23230;SDS011;11784;49.818;8.632;2024-01-30T02:56:45;9.80;;;6.22;;
23230;SDS011;11784;49.818;8.632;2024-01-30T02:59:11;9.38;;;5.10;;
23230;SDS011;11784;49.818;8.632;2024-01-30T03:01:43;9.35;;;5.72;;
23230;SDS011;11784;49.818;8.632;2024-01-30T03:04:10;8.43;;;5.28;;
23230;SDS011;11784;49.818;8.632;2024-01-30T03:06:36;8.65;;;5.35;;
23230;SDS011;11784;49.818;8.632;2024-01-30T03:09:02;11.25;;;5.18;;
23230;SDS011;11784;49.818;8.632;2024-01-30T03:11:29;12.52;;;4.75;;
23230;SDS011;11784;49.818;8.632;2024-01-30T03:13:55;9.88;;;5.07;;
23230;SDS011;11784;49.818;8.632;2024-01-30T03:16:21;9.95;;;5.60;;
23230;SDS011;11784;49.818;8.632;2024-01-30T03:18:47;8.93;;;5.05;;
23230;SDS011;11784;49.818;8.632;2024-01-30T03:21:13;10.80;;;5.35;;
23230;SDS011;11784;49.818;8.632;2024-01-30T03:23:39;11.30;;;4.97;;
23230;SDS011;11784;49.818;8.632;2024-01-30T03:26:05;11.05;;;5.15;;
23230;SDS011;11784;49.818;8.632;2024-01-30T03:28:31;8.50;;;4.90;;
23230;SDS011;11784;49.818;8.632;2024-01-30T03:30:57;8.55;;;4.82;;
23230;SDS011;11784;49.818;8.632;2024-01-30T03:33:23;9.63;;;4.85;;
23230;SDS011;11784;49.818;8.632;2024-01-30T03:35:49;10.02;;;5.30;;
23230;SDS011;11784;49.818;8.632;2024-01-30T03:38:15;10.68;;;4.97;;
23230;SDS011;11784;49.818;8.632;2024-01-30T03:40:41;8.80;;;5.03;;
23230;SDS011;11784;49.818;8.632;2024-01-30T03:43:07;11.10;;;5.00;;
23230;SDS011;11784;49.818;8.632;2024-01-30T03:45:33;7.95;;;5.05;;
23230;SDS011;11784;49.818;8.632;2024-01-30T03:47:59;7.75;;;4.80;;
23230;SDS011;11784;49.818;8.632;2024-01-30T03:50:25;10.82;;;5.32;;
23230;SDS011;11784;49.818;8.632;2024-01-30T03:52:51;12.73;;;5.80;;
23230;SDS011;11784;49.818;8.632;2024-01-30T03:55:16;11.75;;;4.93;;
23230;SDS011;11784;49.818;8.632;2024-01-30T03:57:42;9.70;;;4.93;;
23230;SDS011;11784;49.818;8.632;2024-01-30T04:00:08;10.38;;;4.90;;
23230;SDS011;11784;49.818;8.632;2024-01-30T04:02:34;10.50;;;4.85;;
23230;SDS011;11784;49.818;8.632;2024-01-30T04:05:00;7.60;;;4.28;;
23230;SDS011;11784;49.818;8.632;2024-01-30T04:07:26;10.52;;;5.40;;
23230;SDS011;11784;49.818;8.632;2024-01-30T04:09:52;9.02;;;4.53;;
23230;SDS011;11784;49.818;8.632;2024-01-30T04:12:18;8.45;;;4.80;;
23230;SDS011;11784;49.818;8.632;2024-01-30T04:14:44;7.90;;;4.95;;
23230;SDS011;11784;49.818;8.632;2024-01-30T04:17:10;8.77;;;5.03;;
23230;SDS011;11784;49.818;8.632;2024-01-30T04:19:40;11.52;;;4.68;;
23230;SDS011;11784;49.818;8.632;2024-01-30T04:22:06;8.90;;;3.88;;
23230;SDS011;11784;49.818;8.632;2024-01-30T04:24:32;9.25;;;5.20;;
23230;SDS011;11784;49.818;8.632;2024-01-30T04:26:58;10.20;;;5.70;;
23230;SDS011;11784;49.818;8.632;2024-01-30T04:29:24;11.32;;;6.07;;
23230;SDS011;11784;49.818;8.632;2024-01-30T04:31:50;8.80;;;4.70;;
23230;SDS011;11784;49.818;8.632;2024-01-30T04:34:16;8.23;;;4.80;;
23230;SDS011;11784;49.818;8.632;2024-01-30T04:36:43;9.38;;;4.93;;
23230;SDS011;11784;49.818;8.632;2024-01-30T04:39:12;4.53;;;3.28;;
23230;SDS011;11784;49.818;8.632;2024-01-30T04:41:38;7.80;;;4.63;;
23230;SDS011;11784;49.818;8.632;2024-01-30T04:44:04;7.95;;;4.28;;
23230;SDS011;11784;49.818;8.632;2024-01-30T04:46:30;7.80;;;4.28;;
23230;SDS011;11784;49.818;8.632;2024-01-30T04:48:56;9.70;;;4.75;;
23230;SDS011;11784;49.818;8.632;2024-01-30T04:51:22;8.95;;;4.93;;
23230;SDS011;11784;49.818;8.632;2024-01-30T04:53:48;9.10;;;5.18;;
23230;SDS011;11784;49.818;8.632;2024-01-30T04:56:14;8.30;;;4.30;;
23230;SDS011;11784;49.818;8.632;2024-01-30T04:58:40;6.57;;;4.30;;
23230;SDS011;11784;49.818;8.632;2024-01-30T05:01:06;11.60;;;5.28;;
23230;SDS011;11784;49.818;8.632;2024-01-30T05:03:35;7.68;;;4.95;;
23230;SDS011;11784;49.818;8.632;2024-01-30T05:06:01;10.02;;;4.78;;
23230;SDS011;11784;49.818;8.632;2024-01-30T05:08:27;8.45;;;4.57;;
23230;SDS011;11784;49.818;8.632;2024-01-30T05:10:53;7.65;;;4.93;;
23230;SDS011;11784;49.818;8.632;2024-01-30T05:13:19;8.43;;;4.65;;
23230;SDS011;11784;49.818;8.632;2024-01-30T05:15:45;9.70;;;4.65;;
23230;SDS011;11784;49.818;8.632;2024-01-30T05:18:11;8.60;;;5.07;;
23230;SDS011;11784;49.818;8.632;2024-01-30T05:20:37;9.10;;;4.38;;
23230;SDS011;11784;49.818;8.632;2024-01-30T05:23:03;9.50;;;5.28;;
23230;SDS011;11784;49.818;8.632;2024-01-30T05:25:29;8.63;;;5.07;;
23230;SDS011;11784;49.818;8.632;2024-01-30T05:27:55;5.43;;;3.90;;
23230;SDS011;11784;49.818;8.632;2024-01-30T05:30:21;7.53;;;4.45;;
23230;SDS011;11784;49.818;8.632;2024-01-30T05:32:47;10.18;;;5.18;;
23230;SDS011;11784;49.818;8.632;2024-01-30T05:35:13;7.50;;;4.72;;
23230;SDS011;11784;49.818;8.632;2024-01-30T05:37:38;9.55;;;4.35;;
23230;SDS011;11784;49.818;8.632;2024-01-30T05:40:05;7.88;;;4.78;;
23230;SDS011;11784;49.818;8.632;2024-01-30T05:42:31;8.20;;;5.10;;
23230;SDS011;11784;49.818;8.632;2024-01-30T05:44:57;8.75;;;5.32;;
23230;SDS011;11784;49.818;8.632;2024-01-30T05:47:22;7.45;;;4.80;;
23230;SDS011;11784;49.818;8.632;2024-01-30T05:49:48;8.70;;;4.82;;
23230;SDS011;11784;49.818;8.632;2024-01-30T05:52:14;8.73;;;4.80;;
23230;SDS011;11784;49.818;8.632;2024-01-30T05:54:41;8.20;;;4.97;;
23230;SDS011;11784;49.818;8.632;2024-01-30T05:57:07;8.57;;;4.63;;
23230;SDS011;11784;49.818;8.632;2024-01-30T05:59:33;9.43;;;4.97;;
23230;SDS011;11784;49.818;8.632;2024-01-30T06:02:01;8.05;;;4.72;;
23230;SDS011;11784;49.818;8.632;2024-01-30T06:04:27;14.88;;;5.22;;
23230;SDS011;11784;49.818;8.632;2024-01-30T06:06:53;8.55;;;4.75;;
23230;SDS011;11784;49.818;8.632;2024-01-30T06:09:19;10.50;;;4.90;;
23230;SDS011;11784;49.818;8.632;2024-01-30T06:11:44;10.55;;;5.47;;
23230;SDS011;11784;49.818;8.632;2024-01-30T06:14:10;9.25;;;5.65;;
23230;SDS011;11784;49.818;8.632;2024-01-30T06:16:36;9.85;;;5.18;;
23230;SDS011;11784;49.818;8.632;2024-01-30T06:19:02;9.57;;;4.78;;
23230;SDS011;11784;49.818;8.632;2024-01-30T06:21:28;8.25;;;4.80;;
23230;SDS011;11784;49.818;8.632;2024-01-30T06:23:55;8.07;;;5.05;;
23230;SDS011;11784;49.818;8.632;2024-01-30T06:26:21;12.55;;;5.82;;
23230;SDS011;11784;49.818;8.632;2024-01-30T06:28:47;10.65;;;5.78;;
23230;SDS011;11784;49.818;8.632;2024-01-30T06:31:13;8.05;;;5.25;;
23230;SDS011;11784;49.818;8.632;2024-01-30T06:33:39;6.75;;;4.82;;
23230;SDS011;11784;49.818;8.632;2024-01-30T06:36:07;8.05;;;4.85;;
23230;SDS011;11784;49.818;8.632;2024-01-30T06:38:33;9.85;;;4.75;;
23230;SDS011;11784;49.818;8.632;2024-01-30T06:40:59;10.00;;;5.00;;
23230;SDS011;11784;49.818;8.632;2024-01-30T06:43:25;10.18;;;5.80;;
23230;SDS011;11784;49.818;8.632;2024-01-30T06:45:51;13.15;;;5.45;;
23230;SDS011;11784;49.818;8.632;2024-01-30T06:48:17;11.98;;;5.13;;
23230;SDS011;11784;49.818;8.632;2024-01-30T06:50:43;9.75;;;5.35;;
23230;SDS011;11784;49.818;8.632;2024-01-30T06:53:09;7.53;;;4.68;;
23230;SDS011;11784;49.818;8.632;2024-01-30T06:55:35;10.93;;;5.32;;
23230;SDS011;11784;49.818;8.632;2024-01-30T06:58:01;8.23;;;4.82;;
23230;SDS011;11784;49.818;8.632;2024-01-30T07:00:27;8.25;;;4.93;;
23230;SDS011;11784;49.818;8.632;2024-01-30T07:02:52;9.40;;;5.22;;
23230;SDS011;11784;49.818;8.632;2024-01-30T07:05:18;7.70;;;4.93;;
23230;SDS011;11784;49.818;8.632;2024-01-30T07:07:46;9.13;;;5.53;;
23230;SDS011;11784;49.818;8.632;2024-01-30T07:10:12;9.98;;;5.15;;
23230;SDS011;11784;49.818;8.632;2024-01-30T07:12:38;7.28;;;4.65;;
23230;SDS011;11784;49.818;8.632;2024-01-30T07:15:04;9.60;;;5.47;;
23230;SDS011;11784;49.818;8.632;2024-01-30T07:17:33;8.82;;;4.68;;
23230;SDS011;11784;49.818;8.632;2024-01-30T07:19:59;10.68;;;5.57;;
23230;SDS011;11784;49.818;8.632;2024-01-30T07:22:25;11.15;;;5.97;;
23230;SDS011;11784;49.818;8.632;2024-01-30T07:24:51;9.10;;;5.50;;
23230;SDS011;11784;49.818;8.632;2024-01-30T07:27:17;9.32;;;5.53;;
23230;SDS011;11784;49.818;8.632;2024-01-30T07:29:43;11.48;;;5.20;;
23230;SDS011;11784;49.818;8.632;2024-01-30T07:32:09;8.05;;;4.78;;
23230;SDS011;11784;49.818;8.632;2024-01-30T07:34:35;9.80;;;4.90;;
23230;SDS011;11784;49.818;8.632;2024-01-30T07:37:01;8.82;;;5.40;;
23230;SDS011;11784;49.818;8.632;2024-01-30T07:39:27;8.43;;;5.40;;
23230;SDS011;11784;49.818;8.632;2024-01-30T07:41:53;9.77;;;5.30;;
23230;SDS011;11784;49.818;8.632;2024-01-30T07:44:20;9.75;;;5.85;;
23230;SDS011;11784;49.818;8.632;2024-01-30T07:46:46;10.25;;;5.40;;
23230;SDS011;11784;49.818;8.632;2024-01-30T07:49:12;8.32;;;5.35;;
23230;SDS011;11784;49.818;8.632;2024-01-30T07:51:39;11.10;;;6.28;;
23230;SDS011;11784;49.818;8.632;2024-01-30T07:54:05;11.02;;;5.57;;
23230;SDS011;11784;49.818;8.632;2024-01-30T07:56:31;15.90;;;6.72;;
23230;SDS011;11784;49.818;8.632;2024-01-30T07:58:57;15.18;;;8.85;;
23230;SDS011;11784;49.818;8.632;2024-01-30T08:01:23;14.15;;;8.45;;
23230;SDS011;11784;49.818;8.632;2024-01-30T08:03:48;12.05;;;7.85;;
23230;SDS011;11784;49.818;8.632;2024-01-30T08:06:14;15.15;;;9.05;;
23230;SDS011;11784;49.818;8.632;2024-01-30T08:08:40;15.35;;;9.10;;
23230;SDS011;11784;49.818;8.632;2024-01-30T08:11:06;13.52;;;8.90;;
23230;SDS011;11784;49.818;8.632;2024-01-30T08:13:32;16.77;;;9.68;;
23230;SDS011;11784;49.818;8.632;2024-01-30T08:15:58;14.07;;;8.60;;
23230;SDS011;11784;49.818;8.632;2024-01-30T08:18:24;14.57;;;7.85;;
23230;SDS011;11784;49.818;8.632;2024-01-30T08:20:51;12.48;;;8.73;;
23230;SDS011;11784;49.818;8.632;2024-01-30T08:23:17;13.65;;;8.38;;
23230;SDS011;11784;49.818;8.632;2024-01-30T08:25:43;16.80;;;9.02;;
23230;SDS011;11784;49.818;8.632;2024-01-30T08:28:09;17.63;;;8.32;;
23230;SDS011;11784;49.818;8.632;2024-01-30T08:30:35;13.10;;;7.97;;
23230;SDS011;11784;49.818;8.632;2024-01-30T08:33:01;15.05;;;8.30;;
23230;SDS011;11784;49.818;8.632;2024-01-30T08:35:28;13.63;;;8.32;;
23230;SDS011;11784;49.818;8.632;2024-01-30T08:37:56;15.55;;;8.50;;
23230;SDS011;11784;49.818;8.632;2024-01-30T08:40:22;11.43;;;7.70;;
23230;SDS011;11784;49.818;8.632;2024-01-30T08:42:48;18.17;;;8.55;;
23230;SDS011;11784;49.818;8.632;2024-01-30T08:45:14;11.45;;;7.43;;
23230;SDS011;11784;49.818;8.632;2024-01-30T08:47:40;14.10;;;8.73;;
23230;SDS011;11784;49.818;8.632;2024-01-30T08:50:06;16.10;;;8.02;;
23230;SDS011;11784;49.818;8.632;2024-01-30T08:52:32;13.75;;;7.60;;
23230;SDS011;11784;49.818;8.632;2024-01-30T08:54:59;14.07;;;8.75;;
23230;SDS011;11784;49.818;8.632;2024-01-30T08:57:25;17.67;;;8.52;;
23230;SDS011;11784;49.818;8.632;2024-01-30T08:59:54;15.20;;;7.47;;
23230;SDS011;11784;49.818;8.632;2024-01-30T09:02:20;13.48;;;8.02;;
23230;SDS011;11784;49.818;8.632;2024-01-30T09:04:46;17.23;;;9.18;;
23230;SDS011;11784;49.818;8.632;2024-01-30T09:07:12;16.95;;;9.15;;
23230;SDS011;11784;49.818;8.632;2024-01-30T09:09:41;19.20;;;9.32;;
23230;SDS011;11784;49.818;8.632;2024-01-30T09:12:07;16.80;;;9.63;;
23230;SDS011;11784;49.818;8.632;2024-01-30T09:14:34;16.23;;;8.32;;
23230;SDS011;11784;49.818;8.632;2024-01-30T09:17:00;14.15;;;8.38;;
23230;SDS011;11784;49.818;8.632;2024-01-30T09:19:28;15.10;;;8.63;;
23230;SDS011;11784;49.818;8.632;2024-01-30T09:21:54;14.63;;;8.63;;
23230;SDS011;11784;49.818;8.632;2024-01-30T09:24:19;15.20;;;7.85;;
23230;SDS011;11784;49.818;8.632;2024-01-30T09:26:45;13.93;;;7.75;;
23230;SDS011;11784;49.818;8.632;2024-01-30T09:29:11;18.80;;;9.02;;
23230;SDS011;11784;49.818;8.632;2024-01-30T09:31:37;14.52;;;8.73;;
23230;SDS011;11784;49.818;8.632;2024-01-30T09:34:03;16.42;;;8.57;;
23230;SDS011;11784;49.818;8.632;2024-01-30T09:36:29;15.85;;;8.48;;
23230;SDS011;11784;49.818;8.632;2024-01-30T09:38:56;15.25;;;8.07;;
23230;SDS011;11784;49.818;8.632;2024-01-30T09:41:23;14.40;;;8.45;;
23230;SDS011;11784;49.818;8.632;2024-01-30T09:43:51;14.82;;;8.82;;
23230;SDS011;11784;49.818;8.632;2024-01-30T09:46:17;15.15;;;8.70;;
23230;SDS011;11784;49.818;8.632;2024-01-30T09:48:45;17.00;;;8.88;;
23230;SDS011;11784;49.818;8.632;2024-01-30T09:51:11;15.35;;;8.65;;
23230;SDS011;11784;49.818;8.632;2024-01-30T09:53:38;14.90;;;8.60;;
23230;SDS011;11784;49.818;8.632;2024-01-30T09:56:05;13.50;;;8.27;;
23230;SDS011;11784;49.818;8.632;2024-01-30T09:58:31;18.10;;;9.15;;
23230;SDS011;11784;49.818;8.632;2024-01-30T10:00:57;16.42;;;8.75;;
23230;SDS011;11784;49.818;8.632;2024-01-30T10:03:23;16.95;;;9.18;;
23230;SDS011;11784;49.818;8.632;2024-01-30T10:05:52;13.40;;;8.35;;
23230;SDS011;11784;49.818;8.632;2024-01-30T10:08:18;13.00;;;7.80;;
23230;SDS011;11784;49.818;8.632;2024-01-30T10:10:45;12.32;;;6.78;;
23230;SDS011;11784;49.818;8.632;2024-01-30T10:13:11;15.45;;;8.35;;
23230;SDS011;11784;49.818;8.632;2024-01-30T10:15:37;12.15;;;7.82;;
23230;SDS011;11784;49.818;8.632;2024-01-30T10:18:04;11.82;;;6.45;;
23230;SDS011;11784;49.818;8.632;2024-01-30T10:20:31;12.88;;;7.13;;
23230;SDS011;11784;49.818;8.632;2024-01-30T10:22:57;13.02;;;7.88;;
23230;SDS011;11784;49.818;8.632;2024-01-30T10:25:23;13.35;;;7.82;;
23230;SDS011;11784;49.818;8.632;2024-01-30T10:27:53;18.13;;;8.18;;
23230;SDS011;11784;49.818;8.632;2024-01-30T10:30:22;13.68;;;7.63;;
23230;SDS011;11784;49.818;8.632;2024-01-30T10:32:49;12.50;;;7.30;;
23230;SDS011;11784;49.818;8.632;2024-01-30T10:35:15;13.40;;;7.30;;
23230;SDS011;11784;49.818;8.632;2024-01-30T10:37:44;12.70;;;7.28;;
23230;SDS011;11784;49.818;8.632;2024-01-30T10:40:12;12.02;;;6.97;;
23230;SDS011;11784;49.818;8.632;2024-01-30T10:42:40;12.32;;;6.72;;
23230;SDS011;11784;49.818;8.632;2024-01-30T10:47:36;9.90;;;6.18;;
23230;SDS011;11784;49.818;8.632;2024-01-30T10:50:03;9.13;;;5.43;;
23230;SDS011;11784;49.818;8.632;2024-01-30T10:52:29;10.68;;;5.57;;
23230;SDS011;11784;49.818;8.632;2024-01-30T10:54:55;12.45;;;5.85;;
23230;SDS011;11784;49.818;8.632;2024-01-30T10:57:22;9.52;;;6.35;;
23230;SDS011;11784;49.818;8.632;2024-01-30T10:59:49;10.95;;;6.30;;
23230;SDS011;11784;49.818;8.632;2024-01-30T11:02:17;15.82;;;6.03;;
23230;SDS011;11784;49.818;8.632;2024-01-30T11:04:45;11.80;;;5.53;;
23230;SDS011;11784;49.818;8.632;2024-01-30T11:07:14;12.05;;;5.68;;
23230;SDS011;11784;49.818;8.632;2024-01-30T11:09:47;8.85;;;5.63;;
23230;SDS011;11784;49.818;8.632;2024-01-30T11:12:14;14.18;;;5.68;;
23230;SDS011;11784;49.818;8.632;2024-01-30T11:14:40;10.95;;;5.82;;
23230;SDS011;11784;49.818;8.632;2024-01-30T11:17:05;10.60;;;5.68;;
23230;SDS011;11784;49.818;8.632;2024-01-30T11:19:33;7.32;;;4.82;;
23230;SDS011;11784;49.818;8.632;2024-01-30T11:21:59;10.48;;;6.35;;
23230;SDS011;11784;49.818;8.632;2024-01-30T11:24:25;8.07;;;5.47;;
23230;SDS011;11784;49.818;8.632;2024-01-30T11:26:58;13.18;;;5.80;;
23230;SDS011;11784;49.818;8.632;2024-01-30T11:29:27;10.30;;;5.85;;
23230;SDS011;11784;49.818;8.632;2024-01-30T11:31:54;10.45;;;5.63;;
23230;SDS011;11784;49.818;8.632;2024-01-30T11:34:20;10.80;;;4.93;;
23230;SDS011;11784;49.818;8.632;2024-01-30T11:36:57;11.13;;;5.63;;
23230;SDS011;11784;49.818;8.632;2024-01-30T11:39:26;10.07;;;5.65;;
23230;SDS011;11784;49.818;8.632;2024-01-30T11:41:53;9.05;;;5.40;;
23230;SDS011;11784;49.818;8.632;2024-01-30T11:44:19;12.60;;;5.90;;
23230;SDS011;11784;49.818;8.632;2024-01-30T11:46:46;9.55;;;5.40;;
23230;SDS011;11784;49.818;8.632;2024-01-30T11:49:12;9.05;;;5.05;;
23230;SDS011;11784;49.818;8.632;2024-01-30T11:51:38;12.00;;;5.38;;
23230;SDS011;11784;49.818;8.632;2024-01-30T11:54:04;10.80;;;5.13;;
23230;SDS011;11784;49.818;8.632;2024-01-30T11:56:30;11.35;;;5.50;;
23230;SDS011;11784;49.818;8.632;2024-01-30T11:58:56;7.40;;;4.85;;
23230;SDS011;11784;49.818;8.632;2024-01-30T12:01:22;12.13;;;5.68;;
23230;SDS011;11784;49.818;8.632;2024-01-30T12:03:51;9.85;;;4.45;;
23230;SDS011;11784;49.818;8.632;2024-01-30T12:06:17;7.60;;;4.95;;
23230;SDS011;11784;49.818;8.632;2024-01-30T12:08:55;9.35;;;5.40;;
23230;SDS011;11784;49.818;8.632;2024-01-30T12:11:21;8.23;;;4.82;;
23230;SDS011;11784;49.818;8.632;2024-01-30T12:13:47;11.00;;;5.45;;
23230;SDS011;11784;49.818;8.632;2024-01-30T12:16:13;9.75;;;5.00;;
23230;SDS011;11784;49.818;8.632;2024-01-30T12:18:39;9.88;;;5.20;;
23230;SDS011;11784;49.818;8.632;2024-01-30T12:21:05;10.73;;;5.40;;
23230;SDS011;11784;49.818;8.632;2024-01-30T12:23:33;10.20;;;5.68;;
23230;SDS011;11784;49.818;8.632;2024-01-30T12:26:00;9.23;;;5.40;;
23230;SDS011;11784;49.818;8.632;2024-01-30T12:28:28;12.13;;;5.90;;
23230;SDS011;11784;49.818;8.632;2024-01-30T12:31:00;14.00;;;5.43;;
23230;SDS011;11784;49.818;8.632;2024-01-30T12:33:27;11.20;;;5.53;;
23230;SDS011;11784;49.818;8.632;2024-01-30T12:35:53;9.10;;;5.90;;
23230;SDS011;11784;49.818;8.632;2024-01-30T12:38:19;9.48;;;5.43;;
23230;SDS011;11784;49.818;8.632;2024-01-30T12:40:45;9.10;;;5.45;;
23230;SDS011;11784;49.818;8.632;2024-01-30T12:43:13;9.00;;;5.45;;
23230;SDS011;11784;49.818;8.632;2024-01-30T12:45:39;8.25;;;5.18;;
23230;SDS011;11784;49.818;8.632;2024-01-30T12:48:06;11.43;;;5.75;;
23230;SDS011;11784;49.818;8.632;2024-01-30T12:50:32;8.13;;;4.93;;
23230;SDS011;11784;49.818;8.632;2024-01-30T12:52:58;10.77;;;5.10;;
23230;SDS011;11784;49.818;8.632;2024-01-30T12:55:25;8.88;;;5.32;;
23230;SDS011;11784;49.818;8.632;2024-01-30T12:57:53;10.00;;;5.75;;
23230;SDS011;11784;49.818;8.632;2024-01-30T13:00:19;8.98;;;4.95;;
23230;SDS011;11784;49.818;8.632;2024-01-30T13:02:45;7.80;;;5.00;;
23230;SDS011;11784;49.818;8.632;2024-01-30T13:05:11;7.90;;;4.93;;
23230;SDS011;11784;49.818;8.632;2024-01-30T13:07:37;8.27;;;5.20;;
23230;SDS011;11784;49.818;8.632;2024-01-30T13:10:03;8.35;;;4.95;;
23230;SDS011;11784;49.818;8.632;2024-01-30T13:12:29;10.00;;;5.10;;
23230;SDS011;11784;49.818;8.632;2024-01-30T13:14:57;7.55;;;4.93;;
23230;SDS011;11784;49.818;8.632;2024-01-30T13:17:23;6.53;;;4.35;;
23230;SDS011;11784;49.818;8.632;2024-01-30T13:19:49;9.73;;;5.30;;
23230;SDS011;11784;49.818;8.632;2024-01-30T13:22:15;7.75;;;5.35;;
23230;SDS011;11784;49.818;8.632;2024-01-30T13:24:41;10.90;;;5.43;;
23230;SDS011;11784;49.818;8.632;2024-01-30T13:27:07;9.00;;;5.07;;
23230;SDS011;11784;49.818;8.632;2024-01-30T13:29:33;8.85;;;5.32;;
23230;SDS011;11784;49.818;8.632;2024-01-30T13:31:59;10.18;;;5.90;;
23230;SDS011;11784;49.818;8.632;2024-01-30T13:34:25;9.45;;;4.68;;
23230;SDS011;11784;49.818;8.632;2024-01-30T13:36:51;12.80;;;5.68;;
23230;SDS011;11784;49.818;8.632;2024-01-30T13:39:17;9.02;;;5.03;;
23230;SDS011;11784;49.818;8.632;2024-01-30T13:41:44;7.82;;;4.75;;
23230;SDS011;11784;49.818;8.632;2024-01-30T13:44:10;10.55;;;5.43;;
23230;SDS011;11784;49.818;8.632;2024-01-30T13:46:35;8.32;;;4.82;;
23230;SDS011;11784;49.818;8.632;2024-01-30T13:49:02;11.32;;;5.43;;
23230;SDS011;11784;49.818;8.632;2024-01-30T13:51:28;10.18;;;5.35;;
23230;SDS011;11784;49.818;8.632;2024-01-30T13:53:54;11.48;;;5.35;;
23230;SDS011;11784;49.818;8.632;2024-01-30T13:56:20;11.07;;;5.35;;
23230;SDS011;11784;49.818;8.632;2024-01-30T13:58:48;8.43;;;5.38;;
23230;SDS011;11784;49.818;8.632;2024-01-30T14:01:14;9.05;;;5.13;;
23230;SDS011;11784;49.818;8.632;2024-01-30T14:03:40;7.25;;;5.07;;
23230;SDS011;11784;49.818;8.632;2024-01-30T14:06:06;7.55;;;4.50;;
23230;SDS011;11784;49.818;8.632;2024-01-30T14:08:32;7.03;;;5.00;;
23230;SDS011;11784;49.818;8.632;2024-01-30T14:10:58;8.50;;;5.30;;
23230;SDS011;11784;49.818;8.632;2024-01-30T14:13:24;11.05;;;5.32;;
23230;SDS011;11784;49.818;8.632;2024-01-30T14:15:51;11.32;;;5.53;;
23230;SDS011;11784;49.818;8.632;2024-01-30T14:18:17;8.60;;;5.18;;
23230;SDS011;11784;49.818;8.632;2024-01-30T14:20:43;9.73;;;5.80;;
23230;SDS011;11784;49.818;8.632;2024-01-30T14:23:09;6.95;;;4.70;;
23230;SDS011;11784;49.818;8.632;2024-01-30T14:25:35;9.48;;;5.63;;
23230;SDS011;11784;49.818;8.632;2024-01-30T14:28:01;8.80;;;5.30;;
23230;SDS011;11784;49.818;8.632;2024-01-30T14:30:27;11.77;;;6.05;;
23230;SDS011;11784;49.818;8.632;2024-01-30T14:32:53;7.78;;;5.00;;
23230;SDS011;11784;49.818;8.632;2024-01-30T14:35:19;10.38;;;5.32;;
23230;SDS011;11784;49.818;8.632;2024-01-30T14:37:45;11.05;;;5.10;;